TJBQ/BQN METAR and TAF weather

Enter ICAO airport designator
Station Type Date Time Source
TJBQ METAR 2019/02/17 00:50 UTC NOAA

TJBQ 170050Z 00000KT 10SM CLR 23/18 A3005


Station Type Date Time Source
TJBQ Decoded METAR 2019/02/17 00:50 UTC NOAA

Aquadilla, Rafael Hernandez Airport, PR, United States (TJBQ) 18-30N 067-08W 69M
Feb 16, 2019 - 07:50 PM EST / 2019.02.17 0050 UTC
Wind: Calm:0
Visibility: 10 mile(s):0
Sky conditions: clear
Temperature: 73 F (23 C)
Dew Point: 64 F (18 C)
Relative Humidity: 73%
Pressure (altimeter): 30.05 in. Hg (1017 hPa)
ob: TJBQ 170050Z 00000KT 10SM CLR 23/18 A3005
cycle: 1

Station Type Date Time Source
TJBQ TAF 2019/02/17 06:48 UTC NOAA

TAF TJBQ 170542Z 1706/1806 14003KT P6SM SKC
FM171400 07009KT P6SM SCT035
FM171800 05012KT P6SM VCSH SCT030 SCT060
FM172200 11005KT P6SM FEW040
AMD NOT SKED TIL 171100


Example: see airport list